North Beach, Maryland
Current Conditions -  °F | °C
As of 6:54 AM on Wednesday 28 Jan 2015 (Local Time) from KNAK Reporting Station
Clear Clear  
Wind Chill: -11°   Ceiling: Unl
Heat Index: -5°   Visibility: 10mi
Dew Point: -14°   Wind: 10mph
Humidity: 50%   Direction: 300°WNW
Pressure: 30.14"   Gusts: NA
Location:  38.71°N, 76.53°W
Report Text: KNAK 281154Z AUTO 30009KT 10SM CLR M05/M14 A3014 RMK AO2 SLP207 T10501139 11017 21056 51028
Loading
Personal Weather Stations






























Interactive Weather Map New forecast layout! Learn more

10-Day Weather Forecast

Advertisements
Track Severe Weather on mobile